createdAt,value
2022-08-30T00:00:50.039Z,93169.56
2022-08-30T00:02:21.713Z,93171.13
2022-08-30T00:03:58.596Z,93165.59
2022-08-30T00:05:30.860Z,93174.91
2022-08-30T00:07:04.087Z,93176.06
2022-08-30T00:08:35.950Z,93175.63
2022-08-30T00:10:07.865Z,93179.50
2022-08-30T00:11:39.568Z,93176.34
2022-08-30T00:13:12.393Z,93179.44
2022-08-30T00:14:44.153Z,93179.44
2022-08-30T00:16:15.934Z,93184.00
2022-08-30T00:17:47.614Z,93182.72
2022-08-30T00:19:19.224Z,93186.94
2022-08-30T00:20:51.051Z,93184.56
2022-08-30T00:22:23.396Z,93180.00
2022-08-30T00:23:55.380Z,93177.31
2022-08-30T00:25:27.090Z,93185.59
2022-08-30T00:26:59.220Z,93176.28
2022-08-30T00:28:32.198Z,93175.47
2022-08-30T00:30:04.422Z,93182.50
2022-08-30T00:31:36.014Z,93184.53
2022-08-30T00:33:08.052Z,93172.91
2022-08-30T00:34:39.904Z,93179.59
2022-08-30T00:36:11.545Z,93183.09
2022-08-30T00:37:44.631Z,93181.88
2022-08-30T00:39:16.988Z,93189.25
2022-08-30T00:40:48.881Z,93184.19
2022-08-30T00:42:21.082Z,93186.13
2022-08-30T00:43:52.646Z,93191.03
2022-08-30T00:45:25.743Z,93188.41
2022-08-30T00:46:57.335Z,93182.22
2022-08-30T00:48:30.621Z,93180.22
2022-08-30T00:50:02.303Z,93177.94
2022-08-30T00:51:33.962Z,93177.94
2022-08-30T00:53:06.447Z,93173.28
2022-08-30T00:54:38.130Z,93172.91
2022-08-30T00:56:10.304Z,93162.00
2022-08-30T00:57:42.474Z,93171.31
2022-08-30T00:59:14.155Z,93170.91
2022-08-30T01:00:45.843Z,93163.88
2022-08-30T01:02:18.700Z,93167.03
2022-08-30T01:03:50.636Z,93165.44
2022-08-30T01:05:22.552Z,93167.03
2022-08-30T01:06:54.670Z,93163.13
2022-08-30T01:08:26.241Z,93162.38
2022-08-30T01:09:57.877Z,93162.38
2022-08-30T01:11:29.438Z,93151.81
2022-08-30T01:13:01.333Z,93155.69
2022-08-30T01:14:33.895Z,93159.13
2022-08-30T01:16:06.922Z,93149.72
2022-08-30T01:17:41.614Z,93147.34
2022-08-30T01:19:21.846Z,93152.78
2022-08-30T01:20:53.717Z,93150.50
2022-08-30T01:22:28.867Z,93140.75
2022-08-30T01:24:00.458Z,93147.78
2022-08-30T01:25:32.236Z,93152.88
2022-08-30T01:27:04.155Z,93146.19
2022-08-30T01:28:35.784Z,93155.09
2022-08-30T01:30:07.579Z,93149.56
2022-08-30T01:31:39.272Z,93155.38
2022-08-30T01:33:10.972Z,93148.78
2022-08-30T01:34:43.499Z,93148.06
2022-08-30T01:36:15.330Z,93149.66
2022-08-30T01:37:47.164Z,93143.41
2022-08-30T01:39:19.232Z,93142.63
2022-08-30T01:40:50.850Z,93147.28
2022-08-30T01:42:22.680Z,93146.50
2022-08-30T01:43:55.341Z,93149.22
2022-08-30T01:45:26.981Z,93144.91
2022-08-30T01:46:58.889Z,93144.81
2022-08-30T01:48:31.097Z,93138.44
2022-08-30T01:50:03.689Z,93140.31
2022-08-30T01:51:35.522Z,93136.38
2022-08-30T01:53:07.225Z,93139.09
2022-08-30T01:54:39.671Z,93132.50
2022-08-30T01:56:11.641Z,93138.84
2022-08-30T01:57:43.315Z,93141.56
2022-08-30T01:59:14.945Z,93146.13
2022-08-30T02:00:46.719Z,93148.25
2022-08-30T02:02:19.063Z,93148.72
2022-08-30T02:03:50.968Z,93149.25
2022-08-30T02:05:22.874Z,93141.34
2022-08-30T02:06:54.619Z,93156.97
2022-08-30T02:08:26.437Z,93151.97
2022-08-30T02:10:00.834Z,93149.69
2022-08-30T02:11:32.387Z,93154.00
2022-08-30T02:13:04.013Z,93151.69
2022-08-30T02:14:35.959Z,93150.19
2022-08-30T02:16:08.990Z,93149.50
2022-08-30T02:17:41.793Z,93147.28
2022-08-30T02:19:13.419Z,93153.63
2022-08-30T02:20:46.546Z,93153.63
2022-08-30T02:22:18.277Z,93163.72
2022-08-30T02:23:50.243Z,93153.28
2022-08-30T02:25:21.909Z,93157.56
2022-08-30T02:26:53.612Z,93156.00
2022-08-30T02:28:25.940Z,93157.56
2022-08-30T02:29:57.511Z,93158.72
2022-08-30T02:31:29.268Z,93155.13
2022-08-30T02:33:00.975Z,93151.97
2022-08-30T02:34:32.584Z,93154.69
2022-08-30T02:36:05.169Z,93150.75
2022-08-30T02:37:36.909Z,93147.91
2022-08-30T02:39:09.015Z,93147.47
2022-08-30T02:40:40.715Z,93148.56
2022-08-30T02:42:12.657Z,93144.94
2022-08-30T02:43:44.330Z,93146.72
2022-08-30T02:45:16.103Z,93147.41
2022-08-30T02:46:50.842Z,93154.00
2022-08-30T02:48:22.525Z,93156.72
2022-08-30T02:49:54.163Z,93151.28
2022-08-30T02:51:26.196Z,93151.97
2022-08-30T02:52:57.698Z,93153.84
2022-08-30T02:54:29.606Z,93157.94
2022-08-30T02:56:01.160Z,93153.19
2022-08-30T02:57:33.595Z,93148.91
2022-08-30T02:59:06.130Z,93148.47
2022-08-30T03:00:37.811Z,93152.34
2022-08-30T03:02:09.455Z,93148.03
2022-08-30T03:03:41.808Z,93148.47
2022-08-30T03:05:13.898Z,93147.34
2022-08-30T03:06:45.924Z,93142.31
2022-08-30T03:08:17.573Z,93141.97
2022-08-30T03:09:49.246Z,93135.31
2022-08-30T03:11:22.606Z,93137.25
2022-08-30T03:12:55.485Z,93142.31
2022-08-30T03:14:28.216Z,93134.50
2022-08-30T03:15:59.826Z,93141.09
2022-08-30T03:17:31.551Z,93137.25
2022-08-30T03:19:03.549Z,93136.44
2022-08-30T03:20:38.867Z,93142.25
2022-08-30T03:22:10.800Z,93142.47
2022-08-30T03:23:42.538Z,93145.56
2022-08-30T03:25:14.201Z,93138.53
2022-08-30T03:26:46.670Z,93135.81
2022-08-30T03:28:18.568Z,93145.13
2022-08-30T03:29:50.211Z,93145.13
2022-08-30T03:31:21.990Z,93139.25
2022-08-30T03:32:53.618Z,93142.97
2022-08-30T03:34:25.483Z,93143.31
2022-08-30T03:35:57.165Z,93141.03
2022-08-30T03:37:28.788Z,93139.47
2022-08-30T03:39:00.432Z,93133.56
2022-08-30T03:40:32.314Z,93143.25
2022-08-30T03:42:04.853Z,93141.22
2022-08-30T03:43:36.593Z,93144.72
2022-08-30T03:45:08.882Z,93148.16
2022-08-30T03:46:44.061Z,93152.78
2022-08-30T03:48:15.936Z,93145.88
2022-08-30T03:49:47.518Z,93147.47
2022-08-30T03:51:19.210Z,93150.63
2022-08-30T03:52:50.927Z,93154.50
2022-08-30T03:54:24.839Z,93151.75
2022-08-30T03:55:57.405Z,93157.22
2022-08-30T03:57:29.561Z,93154.81
2022-08-30T03:59:02.930Z,93151.31
2022-08-30T04:00:35.478Z,93159.81
2022-08-30T04:02:08.247Z,93159.47
2022-08-30T04:03:39.872Z,93162.19
2022-08-30T04:05:11.684Z,93164.13
2022-08-30T04:06:45.869Z,93162.19
2022-08-30T04:08:17.503Z,93164.13
2022-08-30T04:09:49.133Z,93164.94
2022-08-30T04:11:21.589Z,93175.72
2022-08-30T04:12:54.014Z,93172.19
2022-08-30T04:14:25.757Z,93171.75
2022-08-30T04:15:57.479Z,93171.84
2022-08-30T04:17:29.225Z,93172.31
2022-08-30T04:19:00.755Z,93180.47
2022-08-30T04:20:32.422Z,93185.47
2022-08-30T04:22:05.007Z,93180.81
2022-08-30T04:23:37.041Z,93183.53
2022-08-30T04:25:08.900Z,93178.97
2022-08-30T04:26:47.334Z,93178.72
2022-08-30T04:28:18.878Z,93185.75
2022-08-30T04:29:50.768Z,93178.38
2022-08-30T04:31:22.425Z,93181.53
2022-08-30T04:32:58.487Z,93183.94
2022-08-30T04:34:30.921Z,93180.53
2022-08-30T04:36:05.235Z,93181.41
2022-08-30T04:37:37.509Z,93179.91
2022-08-30T04:39:10.644Z,93180.34
2022-08-30T04:40:43.124Z,93187.03
2022-08-30T04:42:16.361Z,93194.50
2022-08-30T04:43:49.211Z,93189.16
2022-08-30T04:45:21.053Z,93188.44
2022-08-30T04:46:52.805Z,93186.94
2022-08-30T04:48:24.637Z,93187.03
2022-08-30T04:49:56.454Z,93191.00
2022-08-30T04:51:28.088Z,93190.38
2022-08-30T04:52:59.940Z,93195.91
2022-08-30T04:54:31.750Z,93189.31
2022-08-30T04:56:07.457Z,93185.91
2022-08-30T04:57:40.492Z,93189.06
2022-08-30T04:59:12.211Z,93195.28
2022-08-30T05:00:44.258Z,93194.16
2022-08-30T05:02:15.956Z,93196.97
2022-08-30T05:03:48.338Z,93201.28
2022-08-30T05:05:38.587Z,93202.06
2022-08-30T05:07:10.411Z,93203.31
2022-08-30T05:08:46.223Z,93204.50
2022-08-30T05:10:18.559Z,93192.13
2022-08-30T05:11:50.143Z,93198.81
2022-08-30T05:13:24.339Z,93203.91
2022-08-30T05:15:07.303Z,93205.50
2022-08-30T05:16:39.058Z,93194.66
2022-08-30T05:18:11.562Z,93202.94
2022-08-30T05:19:46.663Z,93204.50
2022-08-30T05:21:21.952Z,93206.09
2022-08-30T05:22:54.195Z,93202.66
2022-08-30T05:24:26.206Z,93200.00
2022-08-30T05:25:58.002Z,93202.06
2022-08-30T05:27:29.963Z,93205.59
2022-08-30T05:29:01.703Z,93209.88
2022-08-30T05:30:34.139Z,93208.41
2022-08-30T05:32:05.890Z,93208.03
2022-08-30T05:33:38.896Z,93208.75
2022-08-30T05:35:11.619Z,93209.88
2022-08-30T05:36:43.238Z,93212.63
2022-08-30T05:38:15.026Z,93205.22
2022-08-30T05:39:51.403Z,93203.38
2022-08-30T05:41:23.546Z,93210.41
2022-08-30T05:42:58.398Z,93206.47
2022-08-30T05:44:30.038Z,93204.19
2022-08-30T05:46:02.059Z,93204.59
2022-08-30T05:47:33.907Z,93206.97
2022-08-30T05:49:05.873Z,93201.94
2022-08-30T05:50:40.087Z,93203.28
2022-08-30T05:52:12.967Z,93210.03
2022-08-30T05:53:44.861Z,93207.78
2022-08-30T05:55:16.542Z,93204.81
2022-08-30T05:56:48.798Z,93202.66
2022-08-30T05:58:20.905Z,93207.28
2022-08-30T05:59:52.853Z,93202.84
2022-08-30T06:01:30.609Z,93205.09
2022-08-30T06:03:03.413Z,93208.84
2022-08-30T06:04:36.779Z,93207.72
2022-08-30T06:06:08.992Z,93214.72
2022-08-30T06:07:40.949Z,93213.94
2022-08-30T06:09:13.050Z,93210.91
2022-08-30T06:10:59.055Z,93212.59
2022-08-30T06:12:34.589Z,93209.59
2022-08-30T06:14:07.659Z,93208.88
2022-08-30T06:15:39.560Z,93211.31
2022-08-30T06:17:11.503Z,93211.84
2022-08-30T06:18:43.135Z,93213.06
2022-08-30T06:20:18.243Z,93211.13
2022-08-30T06:21:50.316Z,93218.41
2022-08-30T06:23:22.572Z,93219.13
2022-08-30T06:24:57.382Z,93218.34
2022-08-30T06:26:29.921Z,93216.03
2022-08-30T06:28:02.675Z,93218.00
2022-08-30T06:29:34.436Z,93218.34
2022-08-30T06:31:09.655Z,93230.06
2022-08-30T06:32:41.558Z,93225.41
2022-08-30T06:34:13.797Z,93223.81
2022-08-30T06:35:58.160Z,93233.59
2022-08-30T06:37:33.098Z,93228.56
2022-08-30T06:39:04.782Z,93229.34
2022-08-30T06:40:37.761Z,93234.09
2022-08-30T06:42:09.914Z,93230.56
2022-08-30T06:43:45.506Z,93234.44
2022-08-30T06:45:20.720Z,93233.22
2022-08-30T06:46:52.468Z,93222.38
2022-08-30T06:48:24.186Z,93229.03
2022-08-30T06:49:55.894Z,93227.09
2022-08-30T06:51:31.692Z,93230.19
2022-08-30T06:53:06.327Z,93230.25
2022-08-30T06:54:37.902Z,93230.34
2022-08-30T06:56:09.973Z,93237.03
2022-08-30T06:57:41.891Z,93231.59
2022-08-30T06:59:13.986Z,93228.88
2022-08-30T07:00:45.568Z,93241.75
2022-08-30T07:02:17.221Z,93237.94
2022-08-30T07:03:48.851Z,93245.06
2022-08-30T07:05:23.349Z,93240.00
2022-08-30T07:06:54.989Z,93239.63
2022-08-30T07:08:27.294Z,93232.59
2022-08-30T07:09:58.931Z,93242.00
2022-08-30T07:11:34.983Z,93236.19
2022-08-30T07:13:06.999Z,93239.28
2022-08-30T07:14:38.826Z,93238.91
2022-08-30T07:16:11.887Z,93231.59
2022-08-30T07:18:02.311Z,93237.06
2022-08-30T07:19:33.956Z,93233.22
2022-08-30T07:21:06.935Z,93226.63
2022-08-30T07:22:38.752Z,93226.31
2022-08-30T07:24:11.676Z,93226.00
2022-08-30T07:25:43.381Z,93236.22
2022-08-30T07:27:15.039Z,93233.91
2022-08-30T07:28:47.068Z,93230.03
2022-08-30T07:30:20.606Z,93224.91
2022-08-30T07:31:52.624Z,93226.53
2022-08-30T07:33:24.409Z,93225.47
2022-08-30T07:34:56.055Z,93224.38
2022-08-30T07:36:30.311Z,93227.03
2022-08-30T07:38:02.098Z,93220.06
2022-08-30T07:39:37.927Z,93223.19
2022-08-30T07:41:17.085Z,93222.03
2022-08-30T07:42:48.894Z,93226.00
2022-08-30T07:44:23.144Z,93227.56
2022-08-30T07:46:00.824Z,93224.84
2022-08-30T07:47:32.551Z,93227.03
2022-08-30T07:49:04.571Z,93230.75
2022-08-30T07:50:36.404Z,93228.91
2022-08-30T07:52:08.325Z,93226.41
2022-08-30T07:53:40.096Z,93236.34
2022-08-30T07:55:11.817Z,93236.63
2022-08-30T07:56:43.445Z,93232.56
2022-08-30T07:58:15.482Z,93226.31
2022-08-30T07:59:47.536Z,93232.63
2022-08-30T08:01:19.579Z,93229.63
2022-08-30T08:02:51.421Z,93230.88
2022-08-30T08:04:23.330Z,93230.53
2022-08-30T08:05:56.113Z,93228.66
2022-08-30T08:07:27.740Z,93223.31
2022-08-30T08:09:02.645Z,93230.84
2022-08-30T08:10:36.003Z,93229.09
2022-08-30T08:12:07.770Z,93230.38
2022-08-30T08:13:45.202Z,93230.84
2022-08-30T08:15:26.769Z,93230.25
2022-08-30T08:16:58.464Z,93231.53
2022-08-30T08:18:32.027Z,93232.41
2022-08-30T08:20:04.371Z,93233.34
2022-08-30T08:21:36.524Z,93236.63
2022-08-30T08:23:08.279Z,93251.69
2022-08-30T08:24:42.207Z,93253.78
2022-08-30T08:26:14.000Z,93250.34
2022-08-30T08:27:49.227Z,93256.81
2022-08-30T08:29:21.176Z,93260.19
2022-08-30T08:30:53.065Z,93255.84
2022-08-30T08:32:25.022Z,93249.09
2022-08-30T08:33:57.252Z,93252.47
2022-08-30T08:35:29.240Z,93262.81
2022-08-30T08:37:01.178Z,93260.25
2022-08-30T08:38:32.871Z,93259.25
2022-08-30T08:40:04.920Z,93257.84
2022-08-30T08:41:47.256Z,93261.91
2022-08-30T08:43:19.619Z,93259.28
2022-08-30T08:44:54.657Z,93266.41
2022-08-30T08:46:35.373Z,93264.47
2022-08-30T08:48:10.697Z,93272.72
2022-08-30T08:49:45.174Z,93275.47
2022-08-30T08:51:36.695Z,93277.84
2022-08-30T08:53:45.375Z,93272.38
2022-08-30T08:55:22.518Z,93269.28
2022-08-30T08:56:54.741Z,93264.56
2022-08-30T08:58:35.884Z,93269.28
2022-08-30T09:00:08.538Z,93264.59
2022-08-30T09:01:40.259Z,93259.09
2022-08-30T09:03:12.974Z,93259.50
2022-08-30T09:04:44.917Z,93260.66
2022-08-30T09:06:20.799Z,93262.25
2022-08-30T09:07:53.318Z,93259.09
2022-08-30T09:09:30.219Z,93252.13
2022-08-30T09:11:02.699Z,93254.84
2022-08-30T09:12:34.790Z,93257.63
2022-08-30T09:14:10.692Z,93254.91
2022-08-30T09:15:45.590Z,93255.72
2022-08-30T09:17:17.866Z,93257.69
2022-08-30T09:18:54.626Z,93252.63
2022-08-30T09:20:28.110Z,93255.41
2022-08-30T09:22:00.761Z,93253.09
2022-08-30T09:23:33.383Z,93256.66
2022-08-30T09:25:07.162Z,93250.75
2022-08-30T09:26:38.876Z,93252.72
2022-08-30T09:28:11.854Z,93256.28
2022-08-30T09:29:51.040Z,93259.41
2022-08-30T09:31:23.583Z,93255.47
2022-08-30T09:32:55.552Z,93253.91
2022-08-30T09:34:27.269Z,93252.75
2022-08-30T09:36:09.831Z,93249.59
2022-08-30T09:37:45.418Z,93241.72
2022-08-30T09:39:21.552Z,93242.53
2022-08-30T09:41:00.354Z,93242.91
2022-08-30T09:42:32.126Z,93246.44
2022-08-30T09:44:24.397Z,93241.31
2022-08-30T09:46:00.189Z,93243.69
2022-08-30T09:47:32.573Z,93242.91
2022-08-30T09:49:04.291Z,93246.84
2022-08-30T09:50:39.515Z,93241.31
2022-08-30T09:52:18.357Z,93241.72
2022-08-30T09:54:18.380Z,93250.38
2022-08-30T09:55:53.321Z,93247.22
2022-08-30T09:57:37.935Z,93248.00
2022-08-30T09:59:25.129Z,93242.47
2022-08-30T10:01:16.426Z,93240.47
2022-08-30T10:02:51.537Z,93242.00
2022-08-30T10:04:30.849Z,93245.53
2022-08-30T10:06:05.972Z,93240.41
2022-08-30T10:07:40.455Z,93245.13
2022-08-30T10:09:16.163Z,93241.19
2022-08-30T10:10:55.540Z,93249.47
2022-08-30T10:12:27.509Z,93243.19
2022-08-30T10:14:02.590Z,93239.63
2022-08-30T10:15:41.561Z,93245.91
2022-08-30T10:17:13.275Z,93239.63
2022-08-30T10:19:00.534Z,93241.59
2022-08-30T10:20:34.109Z,93243.59
2022-08-30T10:22:09.022Z,93238.09
2022-08-30T10:24:01.910Z,93238.84
2022-08-30T10:25:34.423Z,93233.31
2022-08-30T10:27:11.597Z,93226.25
2022-08-30T10:28:47.095Z,93236.03
2022-08-30T10:30:19.000Z,93235.56
2022-08-30T10:31:50.824Z,93231.59
2022-08-30T10:33:31.830Z,93228.03
2022-08-30T10:35:06.522Z,93227.22
2022-08-30T10:36:43.628Z,93219.72
2022-08-30T10:38:31.149Z,93222.81
2022-08-30T10:40:24.335Z,93216.47
2022-08-30T10:42:03.612Z,93222.63
2022-08-30T10:43:42.263Z,93218.63
2022-08-30T10:45:15.094Z,93220.88
2022-08-30T10:46:58.771Z,93222.00
2022-08-30T10:48:31.580Z,93215.69
2022-08-30T10:50:06.466Z,93221.16
2022-08-30T10:52:01.676Z,93217.97
2022-08-30T10:53:37.435Z,93222.28
2022-08-30T10:55:23.540Z,93223.03
2022-08-30T10:56:55.269Z,93217.97
2022-08-30T10:58:26.956Z,93218.34
2022-08-30T11:00:01.315Z,93221.81
2022-08-30T11:01:56.575Z,93222.19
2022-08-30T11:03:47.254Z,93224.53
2022-08-30T11:05:24.714Z,93226.84
2022-08-30T11:07:09.980Z,93222.75
2022-08-30T11:08:45.280Z,93223.06
2022-08-30T11:10:17.427Z,93224.97
2022-08-30T11:11:58.367Z,93215.88
2022-08-30T11:13:31.072Z,93229.19
2022-08-30T11:15:32.012Z,93220.88
2022-08-30T11:17:03.730Z,93222.41
2022-08-30T11:18:45.715Z,93212.19
2022-08-30T11:20:24.726Z,93213.47
2022-08-30T11:22:12.212Z,93214.63
2022-08-30T11:23:57.907Z,93212.63
2022-08-30T11:25:59.864Z,93201.97
2022-08-30T11:27:41.444Z,93206.56
2022-08-30T11:29:32.936Z,93198.75
2022-08-30T11:31:09.078Z,93200.75
2022-08-30T11:33:00.367Z,93192.06
2022-08-30T11:34:56.959Z,93195.44
2022-08-30T11:36:37.679Z,93192.84
2022-08-30T11:38:14.134Z,93183.34
2022-08-30T11:39:49.052Z,93183.19
2022-08-30T11:41:30.033Z,93183.44
2022-08-30T11:43:01.780Z,93186.09
2022-08-30T11:44:33.588Z,93185.66
2022-08-30T11:46:15.400Z,93182.06
2022-08-30T11:47:48.526Z,93185.50
2022-08-30T11:49:20.701Z,93187.00
2022-08-30T11:50:58.287Z,93180.28
2022-08-30T11:52:30.215Z,93172.44
2022-08-30T11:54:01.933Z,93175.88
2022-08-30T11:55:42.532Z,93172.31
2022-08-30T11:57:35.670Z,93168.34
2022-08-30T11:59:22.702Z,93169.44
2022-08-30T12:01:38.626Z,93169.41
2022-08-30T12:03:07.734Z,93161.56
2022-08-30T12:04:46.156Z,93165.81
2022-08-30T12:06:37.996Z,93157.97
2022-08-30T12:08:11.031Z,93166.53
2022-08-30T12:09:45.951Z,93152.88
2022-08-30T12:11:17.768Z,93158.75
2022-08-30T12:12:51.015Z,93154.78
2022-08-30T12:14:34.842Z,93155.09
2022-08-30T12:16:22.713Z,93166.03
2022-08-30T12:18:16.104Z,93162.47
2022-08-30T12:19:50.640Z,93153.03
2022-08-30T12:21:22.429Z,93156.94
2022-08-30T12:22:54.909Z,93155.78
2022-08-30T12:24:32.730Z,93146.72
2022-08-30T12:26:11.043Z,93146.34
2022-08-30T12:27:43.002Z,93143.25
2022-08-30T12:29:17.224Z,93148.72
2022-08-30T12:30:49.647Z,93142.09
2022-08-30T12:32:22.710Z,93140.53
2022-08-30T12:34:00.582Z,93138.16
2022-08-30T12:35:32.636Z,93136.22
2022-08-30T12:37:05.520Z,93131.59
2022-08-30T12:38:38.500Z,93129.25
2022-08-30T12:40:10.628Z,93127.75
2022-08-30T12:41:44.885Z,93125.84
2022-08-30T12:43:27.461Z,93133.34
2022-08-30T12:45:12.917Z,93142.72
2022-08-30T12:46:45.904Z,93137.31
2022-08-30T12:48:18.890Z,93135.09
2022-08-30T12:49:51.466Z,93143.78
2022-08-30T12:51:42.231Z,93144.59
2022-08-30T12:53:14.422Z,93154.09
2022-08-30T12:54:46.739Z,93155.69
2022-08-30T12:56:35.052Z,93146.75
2022-08-30T12:58:11.916Z,93158.22
2022-08-30T12:59:48.818Z,93160.97
2022-08-30T13:01:25.434Z,93163.81
2022-08-30T13:02:58.237Z,93163.47
2022-08-30T13:04:30.487Z,93166.31
2022-08-30T13:06:02.754Z,93169.94
2022-08-30T13:07:35.507Z,93170.78
2022-08-30T13:09:07.355Z,93171.59
2022-08-30T13:10:48.983Z,93169.34
2022-08-30T13:12:21.977Z,93165.50
2022-08-30T13:13:58.576Z,93169.50
2022-08-30T13:15:32.682Z,93166.78
2022-08-30T13:17:08.578Z,93166.47
2022-08-30T13:18:41.963Z,93163.06
2022-08-30T13:20:16.358Z,93161.56
2022-08-30T13:21:51.915Z,93158.81
2022-08-30T13:23:24.021Z,93158.06
2022-08-30T13:24:55.895Z,93165.97
2022-08-30T13:26:28.965Z,93167.59
2022-08-30T13:28:01.170Z,93168.81
2022-08-30T13:29:33.093Z,93172.41
2022-08-30T13:31:04.902Z,93170.44
2022-08-30T13:32:39.040Z,93171.22
2022-08-30T13:34:10.872Z,93171.28
2022-08-30T13:35:43.229Z,93178.72
2022-08-30T13:39:08.315Z,93181.19
2022-08-30T13:40:40.404Z,93176.84
2022-08-30T13:44:14.281Z,93172.88
2022-08-30T13:45:47.614Z,93161.09
2022-08-30T13:47:35.446Z,93166.97
2022-08-30T13:49:43.179Z,93168.53
2022-08-30T13:51:01.103Z,93168.53
2022-08-30T13:52:32.945Z,93167.81
2022-08-30T13:54:04.979Z,93161.53
2022-08-30T13:55:37.598Z,93164.69
2022-08-30T13:57:09.707Z,93160.78
2022-08-30T13:58:42.622Z,93157.28
2022-08-30T14:00:18.027Z,93158.84
2022-08-30T14:06:04.932Z,93170.28
2022-08-30T14:07:26.570Z,93175.00
2022-08-30T14:09:03.802Z,93173.81
2022-08-30T14:10:46.565Z,93173.06
2022-08-30T14:12:52.377Z,93169.56
2022-08-30T14:14:32.342Z,93163.75
2022-08-30T14:17:54.890Z,93164.19
2022-08-30T14:19:26.622Z,93163.81
2022-08-30T14:20:59.608Z,93166.56
2022-08-30T14:22:31.276Z,93158.72
2022-08-30T14:24:05.309Z,93149.31
2022-08-30T14:25:36.960Z,93156.31
2022-08-30T14:27:08.720Z,93151.63
2022-08-30T14:28:40.425Z,93153.97
2022-08-30T14:30:12.437Z,93153.94
2022-08-30T14:31:44.534Z,93158.25
2022-08-30T14:33:17.472Z,93166.34
2022-08-30T14:34:49.671Z,93156.88
2022-08-30T14:36:22.864Z,93153.75
2022-08-30T14:37:54.661Z,93147.47
2022-08-30T14:39:26.512Z,93151.81
2022-08-30T14:40:58.236Z,93147.44
2022-08-30T14:42:32.603Z,93150.91
2022-08-30T14:44:04.413Z,93144.66
2022-08-30T14:45:37.817Z,93141.50
2022-08-30T14:47:10.213Z,93146.56
2022-08-30T14:48:43.039Z,93146.16
2022-08-30T14:50:15.351Z,93147.31
2022-08-30T14:51:48.605Z,93133.22
2022-08-30T14:53:20.227Z,93136.38
2022-08-30T14:54:57.143Z,93141.50
2022-08-30T14:56:30.320Z,93127.47
2022-08-30T14:58:01.974Z,93121.59
2022-08-30T14:59:38.916Z,93121.22
2022-08-30T15:01:12.309Z,93117.69
2022-08-30T15:02:44.417Z,93120.09
2022-08-30T15:04:16.588Z,93122.06
2022-08-30T15:05:49.863Z,93118.16
2022-08-30T15:07:24.733Z,93115.44
2022-08-30T15:08:56.494Z,93114.34
2022-08-30T15:10:28.187Z,93110.47
2022-08-30T15:12:01.567Z,93106.97
2022-08-30T15:13:34.272Z,93110.94
2022-08-30T15:15:06.904Z,93115.25
2022-08-30T15:16:41.070Z,93112.09
2022-08-30T15:18:12.874Z,93117.13
2022-08-30T15:19:45.541Z,93115.19
2022-08-30T15:21:34.415Z,93113.19
2022-08-30T15:23:07.349Z,93110.78
2022-08-30T15:24:40.971Z,93112.34
2022-08-30T15:26:12.546Z,93111.91
2022-08-30T15:27:44.222Z,93113.84
2022-08-30T15:29:17.483Z,93115.41
2022-08-30T15:30:49.403Z,93109.94
2022-08-30T15:32:21.086Z,93109.94
2022-08-30T15:33:52.905Z,93104.06
2022-08-30T15:35:24.646Z,93096.22
2022-08-30T15:36:56.783Z,93101.31
2022-08-30T15:38:29.337Z,93104.47
2022-08-30T15:40:01.132Z,93102.09
2022-08-30T15:41:37.706Z,93099.75
2022-08-30T15:43:11.918Z,93098.53
2022-08-30T15:44:43.780Z,93087.53
2022-08-30T15:46:17.139Z,93097.72
2022-08-30T15:47:48.917Z,93094.19
2022-08-30T15:49:21.102Z,93093.72
2022-08-30T15:50:58.550Z,93089.41
2022-08-30T15:52:30.756Z,93085.88
2022-08-30T15:54:04.570Z,93086.66
2022-08-30T15:55:36.228Z,93084.72
2022-08-30T15:57:07.927Z,93074.16
2022-08-30T15:58:39.529Z,93078.81
2022-08-30T16:00:12.608Z,93078.78
2022-08-30T16:01:47.388Z,93072.00
2022-08-30T16:03:19.991Z,93075.13
2022-08-30T16:04:51.794Z,93077.41
2022-08-30T16:06:26.070Z,93073.47
2022-08-30T16:07:58.392Z,93071.81
2022-08-30T16:09:32.676Z,93072.94
2022-08-30T16:11:05.804Z,93071.78
2022-08-30T16:12:38.448Z,93075.31
2022-08-30T16:14:11.518Z,93072.16
2022-08-30T16:15:47.298Z,93068.25
2022-08-30T16:17:19.142Z,93070.94
2022-08-30T16:18:53.602Z,93071.75
2022-08-30T16:20:26.421Z,93067.38
2022-08-30T16:21:58.671Z,93061.09
2022-08-30T16:23:30.641Z,93063.03
2022-08-30T16:25:05.394Z,93065.38
2022-08-30T16:26:39.332Z,93069.63
2022-08-30T16:28:11.326Z,93072.34
2022-08-30T16:29:43.261Z,93072.69
2022-08-30T16:31:15.483Z,93075.38
2022-08-30T16:32:49.571Z,93073.38
2022-08-30T16:34:21.455Z,93072.22
2022-08-30T16:35:53.849Z,93070.94
2022-08-30T16:37:25.667Z,93072.09
2022-08-30T16:38:58.632Z,93075.53
2022-08-30T16:40:30.892Z,93072.34
2022-08-30T16:42:03.439Z,93084.78
2022-08-30T16:43:38.889Z,93078.47
2022-08-30T16:45:11.139Z,93078.78
2022-08-30T16:46:42.970Z,93080.28
2022-08-30T16:48:15.594Z,93078.31
2022-08-30T16:49:47.932Z,93084.94
2022-08-30T16:51:20.686Z,93084.91
2022-08-30T16:52:52.724Z,93086.41
2022-08-30T16:54:24.879Z,93092.63
2022-08-30T16:55:56.836Z,93082.41
2022-08-30T16:57:28.657Z,93090.50
2022-08-30T16:59:02.957Z,93083.47
2022-08-30T17:00:35.018Z,93080.72
2022-08-30T17:02:08.412Z,93083.03
2022-08-30T17:03:43.483Z,93083.84
2022-08-30T17:05:15.158Z,93083.50
2022-08-30T17:06:48.378Z,93091.03
2022-08-30T17:08:21.599Z,93089.50
2022-08-30T17:09:53.837Z,93086.75
2022-08-30T17:11:25.925Z,93087.91
2022-08-30T17:12:58.412Z,93092.91
2022-08-30T17:14:30.178Z,93088.94
2022-08-30T17:16:03.513Z,93103.28
2022-08-30T17:17:35.637Z,93086.41
2022-08-30T17:19:07.602Z,93100.03
2022-08-30T17:20:39.279Z,93090.22
2022-08-30T17:22:11.772Z,93094.91
2022-08-30T17:23:43.664Z,93107.00
2022-08-30T17:25:16.512Z,93099.19
2022-08-30T17:26:48.203Z,93114.03
2022-08-30T17:28:21.856Z,93112.50
2022-08-30T17:29:53.890Z,93119.53
2022-08-30T17:31:29.207Z,93121.84
2022-08-30T17:33:01.110Z,93125.19
2022-08-30T17:34:32.914Z,93121.53
2022-08-30T17:36:05.159Z,93125.81
2022-08-30T17:37:36.778Z,93142.59
2022-08-30T17:39:10.827Z,93135.94
2022-08-30T17:40:44.183Z,93134.69
2022-08-30T17:42:16.621Z,93138.94
2022-08-30T17:43:48.572Z,93137.69
2022-08-30T17:45:20.838Z,93131.38
2022-08-30T17:46:53.644Z,93135.25
2022-08-30T17:48:25.447Z,93132.09
2022-08-30T17:49:58.074Z,93135.59
2022-08-30T17:51:30.805Z,93134.88
2022-08-30T17:53:03.498Z,93140.72
2022-08-30T17:54:35.198Z,93139.94
2022-08-30T17:56:07.113Z,93139.94
2022-08-30T17:57:42.064Z,93140.34
2022-08-30T17:59:17.788Z,93138.41
2022-08-30T18:00:50.371Z,93137.63
2022-08-30T18:02:27.799Z,93138.78
2022-08-30T18:04:06.377Z,93135.59
2022-08-30T18:05:38.525Z,93143.81
2022-08-30T18:07:14.307Z,93139.13
2022-08-30T18:08:46.438Z,93140.72
2022-08-30T18:10:17.981Z,93148.56
2022-08-30T18:11:49.846Z,93149.16
2022-08-30T18:13:21.474Z,93154.91
2022-08-30T18:14:54.245Z,93152.16
2022-08-30T18:16:26.615Z,93150.91
2022-08-30T18:17:58.687Z,93152.88
2022-08-30T18:19:30.538Z,93159.13
2022-08-30T18:21:02.144Z,93152.06
2022-08-30T18:22:34.059Z,93164.50
2022-08-30T18:24:06.585Z,93147.66
2022-08-30T18:25:39.914Z,93154.91
2022-08-30T18:27:13.416Z,93163.31
2022-08-30T18:28:45.258Z,93158.03
2022-08-30T18:30:17.072Z,93153.59
2022-08-30T18:31:48.697Z,93164.03
2022-08-30T18:33:21.819Z,93153.91
2022-08-30T18:34:56.564Z,93153.91
2022-08-30T18:36:29.533Z,93154.72